createdAt,value
2023-05-19T00:00:56.901Z,20.70
2023-05-19T00:01:56.965Z,20.70
2023-05-19T00:02:57.022Z,20.68
2023-05-19T00:03:56.911Z,20.68
2023-05-19T00:04:56.908Z,20.68
2023-05-19T00:05:57.025Z,20.68
2023-05-19T00:06:56.921Z,20.68
2023-05-19T00:07:56.924Z,20.69
2023-05-19T00:08:56.942Z,20.68
2023-05-19T00:09:56.974Z,20.68
2023-05-19T00:10:56.967Z,20.68
2023-05-19T00:11:56.978Z,20.69
2023-05-19T00:12:56.968Z,20.68
2023-05-19T00:13:56.975Z,20.68
2023-05-19T00:14:56.969Z,20.68
2023-05-19T00:15:57.009Z,20.68
2023-05-19T00:16:56.984Z,20.68
2023-05-19T00:17:57.027Z,20.68
2023-05-19T00:18:57.085Z,20.68
2023-05-19T00:19:57.041Z,20.67
2023-05-19T00:20:57.039Z,20.68
2023-05-19T00:21:57.046Z,20.67
2023-05-19T00:22:57.054Z,20.67
2023-05-19T00:23:57.087Z,20.67
2023-05-19T00:24:57.091Z,20.67
2023-05-19T00:25:57.098Z,20.67
2023-05-19T00:26:57.116Z,20.67
2023-05-19T00:27:57.133Z,20.67
2023-05-19T00:28:57.150Z,20.67
2023-05-19T00:29:57.157Z,20.67
2023-05-19T00:30:57.220Z,20.67
2023-05-19T00:31:57.214Z,20.67
2023-05-19T00:32:57.245Z,20.68
2023-05-19T00:33:57.226Z,20.67
2023-05-19T00:34:57.241Z,20.67
2023-05-19T00:35:57.266Z,20.66
2023-05-19T00:36:57.275Z,20.67
2023-05-19T00:37:57.311Z,20.67
2023-05-19T00:38:57.335Z,20.67
2023-05-19T00:39:57.342Z,20.66
2023-05-19T00:40:57.381Z,20.65
2023-05-19T00:41:57.354Z,20.65
2023-05-19T00:42:57.523Z,20.66
2023-05-19T00:43:57.399Z,20.66
2023-05-19T00:44:57.416Z,20.65
2023-05-19T00:45:57.451Z,20.66
2023-05-19T00:46:57.473Z,20.66
2023-05-19T00:47:57.475Z,20.66
2023-05-19T00:48:57.455Z,20.66
2023-05-19T00:49:57.468Z,20.66
2023-05-19T00:50:57.490Z,20.66
2023-05-19T00:51:57.509Z,20.66
2023-05-19T00:52:57.521Z,20.66
2023-05-19T00:53:57.508Z,20.66
2023-05-19T00:54:57.506Z,20.66
2023-05-19T00:55:57.534Z,20.65
2023-05-19T00:56:57.520Z,20.65
2023-05-19T00:57:57.545Z,20.65
2023-05-19T00:58:57.557Z,20.65
2023-05-19T00:59:57.577Z,20.65
2023-05-19T01:00:57.634Z,20.65
2023-05-19T01:01:57.608Z,20.65
2023-05-19T01:02:57.732Z,20.65
2023-05-19T01:03:57.658Z,20.65
2023-05-19T01:04:57.644Z,20.65
2023-05-19T01:05:57.661Z,20.65
2023-05-19T01:06:57.695Z,20.65
2023-05-19T01:07:57.699Z,20.65
2023-05-19T01:08:57.740Z,20.65
2023-05-19T01:09:57.736Z,20.65
2023-05-19T01:10:57.763Z,20.65
2023-05-19T01:11:57.780Z,20.64
2023-05-19T01:12:57.802Z,20.64
2023-05-19T01:13:57.821Z,20.64
2023-05-19T01:14:57.866Z,20.64
2023-05-19T01:15:57.902Z,20.64
2023-05-19T01:16:57.874Z,20.64
2023-05-19T01:17:57.898Z,20.64
2023-05-19T01:18:57.906Z,20.64
2023-05-19T01:19:57.900Z,20.65
2023-05-19T01:20:57.913Z,20.63
2023-05-19T01:21:57.917Z,20.64
2023-05-19T01:22:57.927Z,20.64
2023-05-19T01:23:57.955Z,20.64
2023-05-19T01:24:57.966Z,20.64
2023-05-19T01:25:57.971Z,20.64
2023-05-19T01:26:58.009Z,20.64
2023-05-19T01:27:58.035Z,20.63
2023-05-19T01:28:58.040Z,20.64
2023-05-19T01:29:58.042Z,20.63
2023-05-19T01:30:58.071Z,20.63
2023-05-19T01:31:58.167Z,20.63
2023-05-19T01:32:58.142Z,20.63
2023-05-19T01:33:58.102Z,20.63
2023-05-19T01:34:58.132Z,20.63
2023-05-19T01:35:58.165Z,20.64
2023-05-19T01:36:58.151Z,20.63
2023-05-19T01:37:58.171Z,20.63
2023-05-19T01:38:58.181Z,20.63
2023-05-19T01:39:58.185Z,20.63
2023-05-19T01:40:58.223Z,20.62
2023-05-19T01:41:58.219Z,20.63
2023-05-19T01:42:58.235Z,20.63
2023-05-19T01:43:58.235Z,20.62
2023-05-19T01:44:58.247Z,20.63
2023-05-19T01:45:58.286Z,20.63
2023-05-19T01:46:58.248Z,20.62
2023-05-19T01:47:58.339Z,20.62
2023-05-19T01:48:58.276Z,20.62
2023-05-19T01:49:58.289Z,20.63
2023-05-19T01:50:58.313Z,20.62
2023-05-19T01:51:58.287Z,20.62
2023-05-19T01:52:58.294Z,20.62
2023-05-19T01:53:58.310Z,20.62
2023-05-19T01:54:58.335Z,20.62
2023-05-19T01:55:58.389Z,20.61
2023-05-19T01:56:58.345Z,20.62
2023-05-19T01:57:58.348Z,20.62
2023-05-19T01:58:58.352Z,20.62
2023-05-19T01:59:58.375Z,20.61
2023-05-19T02:00:58.414Z,20.61
2023-05-19T02:01:58.423Z,20.61
2023-05-19T02:02:58.473Z,20.61
2023-05-19T02:03:58.496Z,20.61
2023-05-19T02:04:58.521Z,20.62
2023-05-19T02:05:58.535Z,20.62
2023-05-19T02:06:58.539Z,20.62
2023-05-19T02:07:58.542Z,20.61
2023-05-19T02:08:58.578Z,20.61
2023-05-19T02:09:58.577Z,20.61
2023-05-19T02:10:58.621Z,20.61
2023-05-19T02:11:58.602Z,20.61
2023-05-19T02:12:58.611Z,20.62
2023-05-19T02:13:58.614Z,20.61
2023-05-19T02:14:58.619Z,20.61
2023-05-19T02:15:58.717Z,20.61
2023-05-19T02:16:58.644Z,20.62
2023-05-19T02:17:58.692Z,20.62
2023-05-19T02:18:58.682Z,20.62
2023-05-19T02:19:58.660Z,20.61
2023-05-19T02:20:58.687Z,20.61
2023-05-19T02:21:58.682Z,20.61
2023-05-19T02:22:58.693Z,20.61
2023-05-19T02:23:58.709Z,20.61
2023-05-19T02:24:58.698Z,20.60
2023-05-19T02:25:58.729Z,20.60
2023-05-19T02:26:58.758Z,20.61
2023-05-19T02:27:58.737Z,20.60
2023-05-19T02:28:58.708Z,20.60
2023-05-19T02:29:58.721Z,20.60
2023-05-19T02:30:58.711Z,20.60
2023-05-19T02:31:58.780Z,20.58
2023-05-19T02:32:58.735Z,20.58
2023-05-19T02:33:58.707Z,20.59
2023-05-19T02:34:58.712Z,20.59
2023-05-19T02:35:58.708Z,20.60
2023-05-19T02:36:58.714Z,20.59
2023-05-19T02:37:58.709Z,20.59
2023-05-19T02:38:58.711Z,20.59
2023-05-19T02:39:58.699Z,20.60
2023-05-19T02:40:58.725Z,20.60
2023-05-19T02:41:58.695Z,20.60
2023-05-19T02:42:58.711Z,20.58
2023-05-19T02:43:58.706Z,20.58
2023-05-19T02:44:58.690Z,20.58
2023-05-19T02:45:58.883Z,20.59
2023-05-19T02:46:58.730Z,20.58
2023-05-19T02:47:58.860Z,20.58
2023-05-19T02:48:58.776Z,20.58
2023-05-19T02:49:58.771Z,20.58
2023-05-19T02:50:58.771Z,20.58
2023-05-19T02:51:58.781Z,20.58
2023-05-19T02:52:58.786Z,20.59
2023-05-19T02:53:58.809Z,20.57
2023-05-19T02:54:58.805Z,20.57
2023-05-19T02:55:58.814Z,20.58
2023-05-19T02:56:58.822Z,20.58
2023-05-19T02:57:58.834Z,20.57
2023-05-19T02:58:58.855Z,20.57
2023-05-19T02:59:58.856Z,20.57
2023-05-19T03:00:58.853Z,20.57
2023-05-19T03:01:58.912Z,20.58
2023-05-19T03:02:58.914Z,20.57
2023-05-19T03:03:58.972Z,20.56
2023-05-19T03:04:58.906Z,20.56
2023-05-19T03:05:58.906Z,20.56
2023-05-19T03:06:58.906Z,20.57
2023-05-19T03:07:58.937Z,20.56
2023-05-19T03:08:58.913Z,20.55
2023-05-19T03:09:58.920Z,20.56
2023-05-19T03:10:58.931Z,20.56
2023-05-19T03:11:58.943Z,20.55
2023-05-19T03:12:58.956Z,20.56
2023-05-19T03:13:58.952Z,20.56
2023-05-19T03:14:58.949Z,20.56
2023-05-19T03:15:59.074Z,20.56
2023-05-19T03:16:59.036Z,20.56
2023-05-19T03:17:59.028Z,20.56
2023-05-19T03:18:59.068Z,20.55
2023-05-19T03:19:59.055Z,20.55
2023-05-19T03:20:59.082Z,20.55
2023-05-19T03:21:59.092Z,20.55
2023-05-19T03:22:59.112Z,20.56
2023-05-19T03:23:59.143Z,20.55
2023-05-19T03:24:59.149Z,20.55
2023-05-19T03:25:59.185Z,20.54
2023-05-19T03:26:59.216Z,20.54
2023-05-19T03:27:59.237Z,20.54
2023-05-19T03:28:59.259Z,20.54
2023-05-19T03:29:59.282Z,20.54
2023-05-19T03:30:59.307Z,20.54
2023-05-19T03:31:59.342Z,20.53
2023-05-19T03:32:59.396Z,20.54
2023-05-19T03:33:59.389Z,20.54
2023-05-19T03:34:59.392Z,20.54
2023-05-19T03:35:59.426Z,20.54
2023-05-19T03:36:59.450Z,20.53
2023-05-19T03:37:59.457Z,20.54
2023-05-19T03:38:59.482Z,20.54
2023-05-19T03:39:59.501Z,20.53
2023-05-19T03:40:59.540Z,20.53
2023-05-19T03:41:59.555Z,20.52
2023-05-19T03:42:59.578Z,20.52
2023-05-19T03:43:59.608Z,20.53
2023-05-19T03:44:59.634Z,20.52
2023-05-19T03:45:59.701Z,20.53
2023-05-19T03:46:59.692Z,20.53
2023-05-19T03:47:59.747Z,20.52
2023-05-19T03:48:59.733Z,20.52
2023-05-19T03:49:59.761Z,20.52
2023-05-19T03:50:59.790Z,20.53
2023-05-19T03:51:59.820Z,20.53
2023-05-19T03:52:59.833Z,20.53
2023-05-19T03:53:59.851Z,20.53
2023-05-19T03:54:59.879Z,20.53
2023-05-19T03:55:59.906Z,20.52
2023-05-19T03:56:59.926Z,20.52
2023-05-19T03:57:59.949Z,20.53
2023-05-19T03:58:59.981Z,20.53
2023-05-19T04:00:00.024Z,20.53
2023-05-19T04:01:00.026Z,20.53
2023-05-19T04:02:00.095Z,20.53
2023-05-19T04:03:00.262Z,20.53
2023-05-19T04:04:00.185Z,20.54
2023-05-19T04:05:00.142Z,20.52
2023-05-19T04:06:00.186Z,20.52
2023-05-19T04:07:00.225Z,20.52
2023-05-19T04:08:00.230Z,20.52
2023-05-19T04:09:00.265Z,20.53
2023-05-19T04:10:00.319Z,20.53
2023-05-19T04:11:00.341Z,20.52
2023-05-19T04:12:00.355Z,20.52
2023-05-19T04:13:00.392Z,20.53
2023-05-19T04:14:00.415Z,20.53
2023-05-19T04:15:00.451Z,20.54
2023-05-19T04:16:00.465Z,20.54
2023-05-19T04:17:00.490Z,20.54
2023-05-19T04:18:00.541Z,20.54
2023-05-19T04:19:00.586Z,20.55
2023-05-19T04:20:00.554Z,20.55
2023-05-19T04:21:00.596Z,20.55
2023-05-19T04:22:00.593Z,20.54
2023-05-19T04:23:00.599Z,20.55
2023-05-19T04:24:00.612Z,20.56
2023-05-19T04:25:00.631Z,20.56
2023-05-19T04:26:00.687Z,20.56
2023-05-19T04:27:00.677Z,20.55
2023-05-19T04:28:00.727Z,20.55
2023-05-19T04:29:00.728Z,20.56
2023-05-19T04:30:00.743Z,20.56
2023-05-19T04:31:00.788Z,20.56
2023-05-19T04:32:00.788Z,20.58
2023-05-19T04:33:00.820Z,20.58
2023-05-19T04:34:00.837Z,20.58
2023-05-19T04:35:00.853Z,20.58
2023-05-19T04:36:00.912Z,20.60
2023-05-19T04:37:00.894Z,20.60
2023-05-19T04:38:00.948Z,20.60
2023-05-19T04:39:00.944Z,20.60
2023-05-19T04:40:00.960Z,20.60
2023-05-19T04:41:00.986Z,20.61
2023-05-19T04:42:01.031Z,20.61
2023-05-19T04:43:01.143Z,20.63
2023-05-19T04:44:01.064Z,20.62
2023-05-19T04:45:01.076Z,20.62
2023-05-19T04:46:01.140Z,20.63
2023-05-19T04:47:01.166Z,20.64
2023-05-19T04:48:01.179Z,20.65
2023-05-19T04:49:01.160Z,20.64
2023-05-19T04:50:01.192Z,20.64
2023-05-19T04:51:01.184Z,20.65
2023-05-19T04:52:01.222Z,20.64
2023-05-19T04:53:01.220Z,20.64
2023-05-19T04:54:01.250Z,20.64
2023-05-19T04:55:01.273Z,20.63
2023-05-19T04:56:01.310Z,20.63
2023-05-19T04:57:01.293Z,20.63
2023-05-19T04:58:01.286Z,20.63
2023-05-19T04:59:01.293Z,20.63
2023-05-19T05:00:01.307Z,20.64
2023-05-19T05:01:01.303Z,20.63
2023-05-19T05:02:01.371Z,20.63
2023-05-19T05:03:01.411Z,20.64
2023-05-19T05:04:01.371Z,20.63
2023-05-19T05:05:01.334Z,20.63
2023-05-19T05:06:01.381Z,20.64
2023-05-19T05:07:01.409Z,20.63
2023-05-19T05:08:01.378Z,20.63
2023-05-19T05:09:01.375Z,20.63
2023-05-19T05:10:01.382Z,20.64
2023-05-19T05:11:01.409Z,20.63
2023-05-19T05:12:01.411Z,20.64
2023-05-19T05:13:01.424Z,20.64
2023-05-19T05:14:01.431Z,20.64
2023-05-19T05:15:01.450Z,20.64
2023-05-19T05:16:01.498Z,20.64
2023-05-19T05:17:01.448Z,20.65
2023-05-19T05:18:01.462Z,20.64
2023-05-19T05:19:01.470Z,20.63
2023-05-19T05:20:01.479Z,20.63
2023-05-19T05:21:01.523Z,20.63
2023-05-19T05:22:01.418Z,20.63
2023-05-19T05:23:01.403Z,20.64
2023-05-19T05:24:01.407Z,20.63
2023-05-19T05:25:01.437Z,20.62
2023-05-19T05:26:01.383Z,20.63
2023-05-19T05:27:01.404Z,20.64
2023-05-19T05:28:01.407Z,20.64
2023-05-19T05:29:01.427Z,20.64
2023-05-19T05:30:01.439Z,20.64
2023-05-19T05:31:01.444Z,20.65
2023-05-19T05:32:01.500Z,20.66
2023-05-19T05:33:01.620Z,20.67
2023-05-19T05:34:01.511Z,20.67
2023-05-19T05:35:01.555Z,20.67
2023-05-19T05:36:01.613Z,20.69
2023-05-19T05:37:01.591Z,20.70
2023-05-19T05:38:01.638Z,20.70
2023-05-19T05:39:01.626Z,20.70
2023-05-19T05:40:01.657Z,20.70
2023-05-19T05:41:01.697Z,20.71
2023-05-19T05:42:01.698Z,20.71
2023-05-19T05:43:01.726Z,20.71
2023-05-19T05:44:01.732Z,20.72
2023-05-19T05:45:01.762Z,20.71
2023-05-19T05:46:01.875Z,20.71
2023-05-19T05:47:01.785Z,20.71
2023-05-19T05:48:01.826Z,20.70
2023-05-19T05:49:01.802Z,20.71
2023-05-19T05:50:01.802Z,20.70
2023-05-19T05:51:01.817Z,20.70
2023-05-19T05:52:06.191Z,20.71
2023-05-19T05:53:01.817Z,20.71
2023-05-19T05:54:01.818Z,20.71
2023-05-19T05:55:01.827Z,20.71
2023-05-19T05:56:01.829Z,20.72
2023-05-19T05:57:01.808Z,20.71
2023-05-19T05:58:01.805Z,20.71
2023-05-19T05:59:01.788Z,20.72
2023-05-19T06:00:01.765Z,20.72
2023-05-19T06:01:01.756Z,20.72
2023-05-19T06:02:01.809Z,20.72
2023-05-19T06:03:01.898Z,20.72
2023-05-19T06:04:01.761Z,20.73
2023-05-19T06:05:01.834Z,20.73
2023-05-19T06:06:01.783Z,20.72
2023-05-19T06:07:01.778Z,20.72
2023-05-19T06:08:01.730Z,20.73
2023-05-19T06:09:01.733Z,20.73
2023-05-19T06:10:01.696Z,20.73
2023-05-19T06:11:01.710Z,20.74
2023-05-19T06:12:01.678Z,20.74
2023-05-19T06:13:01.668Z,20.76
2023-05-19T06:14:01.693Z,20.76
2023-05-19T06:15:01.673Z,20.77
2023-05-19T06:16:02.283Z,20.79
2023-05-19T06:17:01.676Z,20.80
2023-05-19T06:18:01.720Z,20.80
2023-05-19T06:19:01.652Z,20.80
2023-05-19T06:20:01.614Z,20.81
2023-05-19T06:21:01.621Z,20.82
2023-05-19T06:22:01.621Z,20.81
2023-05-19T06:23:01.597Z,20.81
2023-05-19T06:24:01.589Z,20.81
2023-05-19T06:25:01.607Z,20.80
2023-05-19T06:26:01.593Z,20.80
2023-05-19T06:27:01.573Z,20.79
2023-05-19T06:28:01.566Z,20.79
2023-05-19T06:29:01.557Z,20.78
2023-05-19T06:30:01.561Z,20.79
2023-05-19T06:31:01.565Z,20.79
2023-05-19T06:32:01.544Z,20.79
2023-05-19T06:33:01.568Z,20.81
2023-05-19T06:34:01.535Z,20.81
2023-05-19T06:35:01.528Z,20.82
2023-05-19T06:36:01.511Z,20.82
2023-05-19T06:37:01.511Z,20.83
2023-05-19T06:38:01.498Z,20.84
2023-05-19T06:39:02.830Z,20.85
2023-05-19T06:40:01.489Z,20.86
2023-05-19T06:41:01.478Z,20.87
2023-05-19T06:42:01.478Z,20.87
2023-05-19T06:43:01.485Z,20.87
2023-05-19T06:44:01.482Z,20.87
2023-05-19T06:45:01.491Z,20.87
2023-05-19T06:46:01.458Z,20.88
2023-05-19T06:47:01.524Z,20.88
2023-05-19T06:48:01.478Z,20.88
2023-05-19T06:49:01.524Z,20.88
2023-05-19T06:50:01.435Z,20.86
2023-05-19T06:51:01.462Z,20.87
2023-05-19T06:52:01.429Z,20.85
2023-05-19T06:53:01.434Z,20.85
2023-05-19T06:54:01.414Z,20.85
2023-05-19T06:55:01.426Z,20.84
2023-05-19T06:56:01.407Z,20.85
2023-05-19T06:57:01.400Z,20.85
2023-05-19T06:58:01.398Z,20.84
2023-05-19T06:59:01.388Z,20.84
2023-05-19T07:00:01.411Z,20.85
2023-05-19T07:01:01.377Z,20.85
2023-05-19T07:02:01.413Z,20.85
2023-05-19T07:03:01.539Z,20.86
2023-05-19T07:04:01.487Z,20.86
2023-05-19T07:05:01.413Z,20.86
2023-05-19T07:06:01.406Z,20.87
2023-05-19T07:07:01.414Z,20.87
2023-05-19T07:08:01.421Z,20.87
2023-05-19T07:09:01.438Z,20.87
2023-05-19T07:10:01.431Z,20.87
2023-05-19T07:11:01.457Z,20.88
2023-05-19T07:12:01.429Z,20.89
2023-05-19T07:13:01.460Z,20.90
2023-05-19T07:14:01.463Z,20.90
2023-05-19T07:15:01.528Z,20.90
2023-05-19T07:16:01.567Z,20.91
2023-05-19T07:17:01.491Z,20.90
2023-05-19T07:18:01.565Z,20.90
2023-05-19T07:19:01.525Z,20.90
2023-05-19T07:20:01.538Z,20.90
2023-05-19T07:21:01.489Z,20.91
2023-05-19T07:22:01.475Z,20.90
2023-05-19T07:23:01.580Z,20.90
2023-05-19T07:24:01.485Z,20.90
2023-05-19T07:25:01.506Z,20.91
2023-05-19T07:26:01.509Z,20.90
2023-05-19T07:27:01.515Z,20.89
2023-05-19T07:28:01.512Z,20.89
2023-05-19T07:29:01.518Z,20.89
2023-05-19T07:30:01.516Z,20.89
2023-05-19T07:31:01.542Z,20.90
2023-05-19T07:32:01.539Z,20.90
2023-05-19T07:33:01.546Z,20.90
2023-05-19T07:34:01.595Z,20.90
2023-05-19T07:35:01.575Z,20.92
2023-05-19T07:36:01.553Z,20.92
2023-05-19T07:37:01.559Z,20.92
2023-05-19T07:38:01.556Z,20.92
2023-05-19T07:39:01.616Z,20.93
2023-05-19T07:40:01.561Z,20.93
2023-05-19T07:41:01.606Z,20.93
2023-05-19T07:42:01.574Z,20.93
2023-05-19T07:43:01.570Z,20.94
2023-05-19T07:44:01.581Z,20.94
2023-05-19T07:45:01.634Z,20.95
2023-05-19T07:46:01.623Z,20.95
2023-05-19T07:47:01.601Z,20.96
2023-05-19T07:48:01.610Z,20.97
2023-05-19T07:49:01.589Z,20.98
2023-05-19T07:50:01.632Z,20.98
2023-05-19T07:51:01.613Z,20.99
2023-05-19T07:52:01.649Z,21.00
2023-05-19T07:53:01.655Z,21.01
2023-05-19T07:54:01.658Z,21.00
2023-05-19T07:55:01.689Z,21.01
2023-05-19T07:56:01.699Z,21.01
2023-05-19T07:57:01.737Z,21.01
2023-05-19T07:58:01.773Z,21.01
2023-05-19T07:59:01.790Z,21.01
2023-05-19T08:00:01.842Z,21.00
2023-05-19T08:01:01.885Z,21.01
2023-05-19T08:02:01.963Z,21.01
2023-05-19T08:03:02.038Z,21.01
2023-05-19T08:04:02.208Z,21.01
2023-05-19T08:05:02.010Z,21.01
2023-05-19T08:06:02.013Z,21.02
2023-05-19T08:07:02.063Z,21.03
2023-05-19T08:08:02.060Z,21.03
2023-05-19T08:09:02.084Z,21.04
2023-05-19T08:10:02.134Z,21.04
2023-05-19T08:11:02.217Z,21.03
2023-05-19T08:12:02.173Z,21.02
2023-05-19T08:13:02.167Z,21.04
2023-05-19T08:14:02.203Z,21.03
2023-05-19T08:15:02.249Z,21.03
2023-05-19T08:16:02.348Z,21.02
2023-05-19T08:17:02.319Z,21.02
2023-05-19T08:18:02.447Z,21.02
2023-05-19T08:19:02.394Z,21.02
2023-05-19T08:20:02.283Z,21.01
2023-05-19T08:21:02.273Z,21.01
2023-05-19T08:22:02.277Z,21.02
2023-05-19T08:23:02.254Z,21.01
2023-05-19T08:24:02.247Z,21.02
2023-05-19T08:25:02.271Z,21.02
2023-05-19T08:26:02.269Z,21.02
2023-05-19T08:27:02.231Z,21.03
2023-05-19T08:28:02.258Z,21.05
2023-05-19T08:29:02.227Z,21.06
2023-05-19T08:30:02.229Z,21.05
2023-05-19T08:31:02.291Z,21.05
2023-05-19T08:32:02.222Z,21.05
2023-05-19T08:33:02.302Z,21.05
2023-05-19T08:34:02.225Z,21.06
2023-05-19T08:35:02.192Z,21.06
2023-05-19T08:36:02.189Z,21.07
2023-05-19T08:37:02.202Z,21.07
2023-05-19T08:38:02.246Z,21.07
2023-05-19T08:39:02.277Z,21.08
2023-05-19T08:40:02.326Z,21.09
2023-05-19T08:41:02.412Z,21.10
2023-05-19T08:42:02.401Z,21.11
2023-05-19T08:43:02.459Z,21.12
2023-05-19T08:44:02.449Z,21.13
2023-05-19T08:45:02.524Z,21.14
2023-05-19T08:46:02.553Z,21.13
2023-05-19T08:47:02.663Z,21.14
2023-05-19T08:48:02.657Z,21.13
2023-05-19T08:49:02.651Z,21.14
2023-05-19T08:50:02.689Z,21.14
2023-05-19T08:51:02.739Z,21.16
2023-05-19T08:52:02.805Z,21.15
2023-05-19T08:53:02.906Z,21.16
2023-05-19T08:54:02.918Z,21.16
2023-05-19T08:55:02.982Z,21.18
2023-05-19T08:56:03.050Z,21.18
2023-05-19T08:57:03.143Z,21.19
2023-05-19T08:58:03.133Z,21.20
2023-05-19T08:59:03.188Z,21.21
2023-05-19T09:00:03.231Z,21.22
2023-05-19T09:01:03.328Z,21.24
2023-05-19T09:02:03.388Z,21.25
2023-05-19T09:04:03.496Z,21.28
2023-05-19T09:05:03.416Z,21.29
2023-05-19T09:06:03.394Z,21.30
2023-05-19T09:07:03.389Z,21.30
2023-05-19T09:08:03.383Z,21.31
2023-05-19T09:09:03.381Z,21.31
2023-05-19T09:10:03.348Z,21.32
2023-05-19T09:11:03.339Z,21.31
2023-05-19T09:12:03.335Z,21.31
2023-05-19T09:13:03.331Z,21.32
2023-05-19T09:14:03.319Z,21.31
2023-05-19T09:15:03.316Z,21.30
2023-05-19T09:16:03.367Z,21.31
2023-05-19T09:17:03.425Z,21.30
2023-05-19T09:18:03.330Z,21.31
2023-05-19T09:19:03.349Z,21.30
2023-05-19T09:20:03.274Z,21.31
2023-05-19T09:21:03.506Z,21.30
2023-05-19T09:22:03.299Z,21.30
2023-05-19T09:23:03.250Z,21.31
2023-05-19T09:24:03.252Z,21.32
2023-05-19T09:25:03.232Z,21.32
2023-05-19T09:26:03.225Z,21.34
2023-05-19T09:27:03.290Z,21.34
2023-05-19T09:28:03.236Z,21.34
2023-05-19T09:29:03.207Z,21.35
2023-05-19T09:30:03.209Z,21.36
2023-05-19T09:31:03.233Z,21.36
2023-05-19T09:32:03.257Z,21.37
2023-05-19T09:33:03.198Z,21.36
2023-05-19T09:34:03.169Z,21.36
2023-05-19T09:35:03.161Z,21.35
2023-05-19T09:36:03.155Z,21.34
2023-05-19T09:37:03.152Z,21.33
2023-05-19T09:38:03.146Z,21.34
2023-05-19T09:39:03.136Z,21.33
2023-05-19T09:40:03.149Z,21.35
2023-05-19T09:41:03.130Z,21.35
2023-05-19T09:42:03.110Z,21.35
2023-05-19T09:43:03.098Z,21.36
2023-05-19T09:44:03.090Z,21.37
2023-05-19T09:45:03.144Z,21.38
2023-05-19T09:46:03.249Z,21.38
2023-05-19T09:47:03.330Z,21.38
2023-05-19T09:48:03.393Z,21.38
2023-05-19T09:49:03.355Z,21.38
2023-05-19T09:50:03.404Z,21.38
2023-05-19T09:51:03.452Z,21.36
2023-05-19T09:52:03.505Z,21.36
2023-05-19T09:53:03.535Z,21.37
2023-05-19T09:54:03.569Z,21.37
2023-05-19T09:55:03.615Z,21.37
2023-05-19T09:56:03.756Z,21.37
2023-05-19T09:57:03.749Z,21.38
2023-05-19T09:58:03.775Z,21.36
2023-05-19T09:59:03.846Z,21.37
2023-05-19T10:00:03.931Z,21.37
2023-05-19T10:01:03.972Z,21.37
2023-05-19T10:02:04.046Z,21.38
2023-05-19T10:03:04.093Z,21.38
2023-05-19T10:04:05.976Z,21.38
2023-05-19T10:05:04.243Z,21.36
2023-05-19T10:06:04.249Z,21.36
2023-05-19T10:07:04.351Z,21.37
2023-05-19T10:08:04.375Z,21.37
2023-05-19T10:09:04.434Z,21.38
2023-05-19T10:10:04.508Z,21.38
2023-05-19T10:11:04.562Z,21.38
2023-05-19T10:12:04.651Z,21.38
2023-05-19T10:13:04.732Z,21.39
2023-05-19T10:14:04.765Z,21.39
2023-05-19T10:15:04.849Z,21.39
2023-05-19T10:16:04.903Z,21.39
2023-05-19T10:17:05.005Z,21.38
2023-05-19T10:18:04.993Z,21.38
2023-05-19T10:19:05.149Z,21.38
2023-05-19T10:20:05.101Z,21.38
2023-05-19T10:21:05.169Z,21.38
2023-05-19T10:22:05.245Z,21.38
2023-05-19T10:23:05.288Z,21.38
2023-05-19T10:24:05.350Z,21.38
2023-05-19T10:25:05.410Z,21.40
2023-05-19T10:26:05.458Z,21.40
2023-05-19T10:27:05.595Z,21.42
2023-05-19T10:28:05.598Z,21.42
2023-05-19T10:29:05.655Z,21.42
2023-05-19T10:30:05.746Z,21.42
2023-05-19T10:31:05.772Z,21.43
2023-05-19T10:32:05.924Z,21.44
2023-05-19T10:33:05.960Z,21.44
2023-05-19T10:34:05.995Z,21.45
2023-05-19T10:35:06.013Z,21.45
2023-05-19T10:36:06.084Z,21.45
2023-05-19T10:37:06.158Z,21.45
2023-05-19T10:38:06.205Z,21.45
2023-05-19T10:39:06.272Z,21.46
2023-05-19T10:40:06.326Z,21.46
2023-05-19T10:41:06.402Z,21.47
2023-05-19T10:42:06.453Z,21.48
2023-05-19T10:43:06.501Z,21.48
2023-05-19T10:44:06.540Z,21.48
2023-05-19T10:45:06.622Z,21.48
2023-05-19T10:46:06.658Z,21.47
2023-05-19T10:47:06.715Z,21.47
2023-05-19T10:48:06.780Z,21.47
2023-05-19T10:49:06.785Z,21.46
2023-05-19T10:50:06.888Z,21.47
2023-05-19T10:51:06.984Z,21.47
2023-05-19T10:52:06.932Z,21.47
2023-05-19T10:53:06.959Z,21.47
2023-05-19T10:54:07.011Z,21.48
2023-05-19T10:55:07.053Z,21.47
2023-05-19T10:56:07.102Z,21.48
2023-05-19T10:57:07.203Z,21.47
2023-05-19T10:58:07.209Z,21.48
2023-05-19T10:59:07.287Z,21.47
2023-05-19T11:00:07.340Z,21.48
2023-05-19T11:01:07.408Z,21.48
2023-05-19T11:02:07.517Z,21.48
2023-05-19T11:03:07.566Z,21.48
2023-05-19T11:04:07.705Z,21.47
2023-05-19T11:05:07.742Z,21.48
2023-05-19T11:06:07.690Z,21.48
2023-05-19T11:07:07.765Z,21.48
2023-05-19T11:08:07.769Z,21.48
2023-05-19T11:09:07.817Z,21.49
2023-05-19T11:10:07.861Z,21.49
2023-05-19T11:11:07.914Z,21.50
2023-05-19T11:12:08.031Z,21.50
2023-05-19T11:13:07.992Z,21.50
2023-05-19T11:14:08.060Z,21.50
2023-05-19T11:15:08.086Z,21.51
2023-05-19T11:16:08.148Z,21.50
2023-05-19T11:17:08.224Z,21.51
2023-05-19T11:18:08.195Z,21.50
2023-05-19T11:19:08.208Z,21.52
2023-05-19T11:20:08.210Z,21.51
2023-05-19T11:21:08.289Z,21.52
2023-05-19T11:22:08.277Z,21.52
2023-05-19T11:23:08.593Z,21.51
2023-05-19T11:24:08.346Z,21.51
2023-05-19T11:25:08.386Z,21.50
2023-05-19T11:26:08.443Z,21.49
2023-05-19T11:27:08.494Z,21.50
2023-05-19T11:28:08.536Z,21.51
2023-05-19T11:29:08.582Z,21.51
2023-05-19T11:30:08.635Z,21.52
2023-05-19T11:31:08.693Z,21.51
2023-05-19T11:32:08.781Z,21.52
2023-05-19T11:33:08.890Z,21.52
2023-05-19T11:34:08.890Z,21.52
2023-05-19T11:35:09.796Z,21.52
2023-05-19T11:36:08.991Z,21.52
2023-05-19T11:37:09.031Z,21.53
2023-05-19T11:38:09.083Z,21.53
2023-05-19T11:39:09.155Z,21.52
2023-05-19T11:40:09.274Z,21.53
2023-05-19T11:41:09.225Z,21.53
2023-05-19T11:42:09.255Z,21.52
2023-05-19T11:43:09.265Z,21.52
2023-05-19T11:44:09.294Z,21.54
2023-05-19T11:45:09.327Z,21.53
2023-05-19T11:46:09.402Z,21.54
2023-05-19T11:47:09.523Z,21.53
2023-05-19T11:48:09.537Z,21.53
2023-05-19T11:49:09.537Z,21.53
2023-05-19T11:50:09.595Z,21.53
2023-05-19T11:51:09.646Z,21.53
2023-05-19T11:52:09.691Z,21.55
2023-05-19T11:53:09.752Z,21.54
2023-05-19T11:54:09.784Z,21.54
2023-05-19T11:55:09.843Z,21.55
2023-05-19T11:56:09.890Z,21.56
2023-05-19T11:57:09.959Z,21.55
2023-05-19T11:58:09.976Z,21.55
2023-05-19T11:59:10.028Z,21.55
2023-05-19T12:00:10.109Z,21.54
2023-05-19T12:01:10.101Z,21.54
2023-05-19T12:02:10.156Z,21.55
2023-05-19T12:03:10.331Z,21.56
2023-05-19T12:04:10.206Z,21.56
2023-05-19T12:05:10.274Z,21.55
2023-05-19T12:06:10.328Z,21.56
2023-05-19T12:07:10.372Z,21.56
2023-05-19T12:08:10.417Z,21.56
2023-05-19T12:09:10.454Z,21.57
2023-05-19T12:10:10.574Z,21.57
2023-05-19T12:11:10.540Z,21.57
2023-05-19T12:12:10.614Z,21.57
2023-05-19T12:13:10.921Z,21.57
2023-05-19T12:14:10.712Z,21.57
2023-05-19T12:15:10.793Z,21.57
2023-05-19T12:16:10.841Z,21.57
2023-05-19T12:17:10.876Z,21.57
2023-05-19T12:18:10.982Z,21.58
2023-05-19T12:19:10.971Z,21.58
2023-05-19T12:20:11.028Z,21.58
2023-05-19T12:21:11.105Z,21.59
2023-05-19T12:22:11.124Z,21.59
2023-05-19T12:23:11.176Z,21.59
2023-05-19T12:24:11.232Z,21.59
2023-05-19T12:25:11.285Z,21.58
2023-05-19T12:26:11.333Z,21.58
2023-05-19T12:27:11.393Z,21.57
2023-05-19T12:28:11.418Z,21.58
2023-05-19T12:29:11.472Z,21.58
2023-05-19T12:30:11.520Z,21.57
2023-05-19T12:31:11.690Z,21.57
2023-05-19T12:32:11.682Z,21.58
2023-05-19T12:33:11.727Z,21.58
2023-05-19T12:34:11.736Z,21.59
2023-05-19T12:35:11.773Z,21.59
2023-05-19T12:36:11.833Z,21.58
2023-05-19T12:37:11.903Z,21.59
2023-05-19T12:38:11.934Z,21.58
2023-05-19T12:39:11.972Z,21.58
2023-05-19T12:40:12.030Z,21.58
2023-05-19T12:41:12.081Z,21.58
2023-05-19T12:42:12.151Z,21.59
2023-05-19T12:43:12.173Z,21.59
2023-05-19T12:44:12.214Z,21.58
2023-05-19T12:45:12.331Z,21.58
2023-05-19T12:46:12.434Z,21.59
2023-05-19T12:47:12.360Z,21.59
2023-05-19T12:48:12.644Z,21.58
2023-05-19T12:49:12.460Z,21.59
2023-05-19T12:50:12.517Z,21.58
2023-05-19T12:51:12.558Z,21.58
2023-05-19T12:52:13.176Z,21.57
2023-05-19T12:53:12.666Z,21.57
2023-05-19T12:54:12.757Z,21.58